createdAt,value
2024-01-14T00:00:36.165Z,99418.27
2024-01-14T00:02:47.721Z,99415.88
2024-01-14T00:04:39.212Z,99408.83
2024-01-14T00:06:30.909Z,99404.71
2024-01-14T00:08:21.994Z,99401.08
2024-01-14T00:10:13.264Z,99398.11
2024-01-14T00:12:06.498Z,99391.64
2024-01-14T00:13:58.213Z,99390.27
2024-01-14T00:15:49.676Z,99388.31
2024-01-14T00:17:42.565Z,99392.04
2024-01-14T00:19:34.422Z,99388.40
2024-01-14T00:21:26.278Z,99388.51
2024-01-14T00:23:18.030Z,99395.20
2024-01-14T00:25:09.967Z,99400.72
2024-01-14T00:27:01.261Z,99398.40
2024-01-14T00:28:59.643Z,99403.51
2024-01-14T00:30:51.344Z,99398.86
2024-01-14T00:32:42.681Z,99398.29
2024-01-14T00:34:34.484Z,99394.73
2024-01-14T00:36:26.024Z,99388.24
2024-01-14T00:38:17.511Z,99384.17
2024-01-14T00:40:11.825Z,99381.66
2024-01-14T00:42:03.224Z,99379.99
2024-01-14T00:43:54.683Z,99373.15
2024-01-14T00:45:46.196Z,99374.30
2024-01-14T00:47:37.994Z,99371.23
2024-01-14T00:49:29.771Z,99375.32
2024-01-14T00:51:21.638Z,99362.89
2024-01-14T00:53:13.224Z,99363.47
2024-01-14T00:55:05.126Z,99358.91
2024-01-14T00:56:56.627Z,99360.88
2024-01-14T00:58:48.227Z,99358.38
2024-01-14T01:00:39.616Z,99352.88
2024-01-14T01:02:31.132Z,99355.27
2024-01-14T01:04:22.673Z,99342.27
2024-01-14T01:06:14.627Z,99340.30
2024-01-14T01:08:07.095Z,99339.94
2024-01-14T01:09:58.344Z,99336.36
2024-01-14T01:11:49.801Z,99338.00
2024-01-14T01:13:41.485Z,99329.63
2024-01-14T01:15:33.208Z,99331.98
2024-01-14T01:19:17.070Z,99322.35
2024-01-14T01:21:08.720Z,99317.38
2024-01-14T01:23:00.637Z,99318.29
2024-01-14T01:24:52.153Z,99320.98
2024-01-14T01:26:43.828Z,99321.12
2024-01-14T01:28:34.939Z,99312.17
2024-01-14T01:30:26.169Z,99308.23
2024-01-14T01:32:18.128Z,99306.84
2024-01-14T01:34:09.716Z,99304.29
2024-01-14T01:36:01.356Z,99301.98
2024-01-14T01:37:53.052Z,99299.20
2024-01-14T01:39:45.250Z,99291.16
2024-01-14T01:41:37.908Z,99285.24
2024-01-14T01:43:29.306Z,99282.59
2024-01-14T01:45:20.932Z,99280.22
2024-01-14T01:47:12.923Z,99276.30
2024-01-14T01:49:04.616Z,99272.27
2024-01-14T01:50:57.459Z,99264.20
2024-01-14T01:52:48.955Z,99265.95
2024-01-14T01:54:40.914Z,99261.27
2024-01-14T01:56:33.830Z,99250.96
2024-01-14T01:58:25.189Z,99252.92
2024-01-14T02:00:17.636Z,99248.23
2024-01-14T02:02:09.196Z,99247.59
2024-01-14T02:04:01.245Z,99247.58
2024-01-14T02:05:57.851Z,99247.55
2024-01-14T02:07:49.189Z,99243.70
2024-01-14T02:09:40.892Z,99244.95
2024-01-14T02:11:32.513Z,99241.66
2024-01-14T02:13:24.342Z,99238.81
2024-01-14T02:15:16.087Z,99238.37
2024-01-14T02:17:07.841Z,99234.48
2024-01-14T02:18:59.463Z,99235.82
2024-01-14T02:20:51.439Z,99232.83
2024-01-14T02:22:45.163Z,99227.01
2024-01-14T02:24:38.461Z,99225.18
2024-01-14T02:26:29.648Z,99219.73
2024-01-14T02:28:21.942Z,99225.02
2024-01-14T02:30:13.604Z,99224.81
2024-01-14T02:32:05.096Z,99223.81
2024-01-14T02:33:56.470Z,99221.45
2024-01-14T02:35:48.256Z,99226.20
2024-01-14T02:37:44.785Z,99225.86
2024-01-14T02:39:36.380Z,99223.21
2024-01-14T02:41:27.894Z,99219.67
2024-01-14T02:43:19.113Z,99219.20
2024-01-14T02:45:10.753Z,99215.20
2024-01-14T02:47:02.609Z,99212.82
2024-01-14T02:48:54.083Z,99216.67
2024-01-14T02:50:45.340Z,99214.45
2024-01-14T02:52:36.451Z,99210.63
2024-01-14T02:54:27.801Z,99203.80
2024-01-14T02:56:19.824Z,99202.35
2024-01-14T02:58:11.653Z,99197.16
2024-01-14T03:00:03.887Z,99197.76
2024-01-14T03:01:55.323Z,99195.75
2024-01-14T03:03:46.727Z,99197.02
2024-01-14T03:05:38.457Z,99199.00
2024-01-14T03:07:29.768Z,99204.92
2024-01-14T03:09:21.189Z,99202.09
2024-01-14T03:11:12.874Z,99203.52
2024-01-14T03:13:05.792Z,99192.36
2024-01-14T03:14:57.059Z,99190.05
2024-01-14T03:16:48.848Z,99185.98
2024-01-14T03:18:40.939Z,99185.31
2024-01-14T03:20:32.371Z,99188.40
2024-01-14T03:22:23.885Z,99188.55
2024-01-14T03:24:15.564Z,99187.04
2024-01-14T03:26:07.294Z,99191.93
2024-01-14T03:27:58.677Z,99194.13
2024-01-14T03:29:50.146Z,99188.48
2024-01-14T03:31:41.801Z,99186.29
2024-01-14T03:33:33.081Z,99188.86
2024-01-14T03:35:24.885Z,99185.23
2024-01-14T03:37:16.581Z,99187.34
2024-01-14T03:39:08.278Z,99186.12
2024-01-14T03:40:59.832Z,99183.79
2024-01-14T03:42:51.659Z,99184.81
2024-01-14T03:44:43.315Z,99179.31
2024-01-14T03:46:34.794Z,99175.05
2024-01-14T03:48:26.723Z,99182.61
2024-01-14T03:50:18.265Z,99180.71
2024-01-14T03:52:10.043Z,99179.14
2024-01-14T03:54:01.841Z,99176.33
2024-01-14T03:55:53.614Z,99168.75
2024-01-14T03:57:45.217Z,99169.13
2024-01-14T03:59:36.893Z,99167.48
2024-01-14T04:01:28.497Z,99166.85
2024-01-14T04:03:20.256Z,99163.24
2024-01-14T04:05:12.133Z,99162.57
2024-01-14T04:07:04.148Z,99159.46
2024-01-14T04:08:55.609Z,99158.64
2024-01-14T04:10:47.122Z,99159.13
2024-01-14T04:12:40.862Z,99159.07
2024-01-14T04:14:32.208Z,99161.44
2024-01-14T04:16:23.911Z,99162.16
2024-01-14T04:18:15.699Z,99161.07
2024-01-14T04:20:08.879Z,99163.44
2024-01-14T04:22:00.526Z,99167.05
2024-01-14T04:23:52.268Z,99165.84
2024-01-14T04:25:43.872Z,99163.65
2024-01-14T04:27:35.437Z,99167.06
2024-01-14T04:29:27.096Z,99163.88
2024-01-14T04:31:18.510Z,99162.41
2024-01-14T04:33:10.201Z,99161.50
2024-01-14T04:35:01.756Z,99158.86
2024-01-14T04:36:53.297Z,99154.27
2024-01-14T04:38:44.963Z,99153.25
2024-01-14T04:40:36.667Z,99145.11
2024-01-14T04:42:29.405Z,99137.54
2024-01-14T04:44:20.869Z,99144.34
2024-01-14T04:46:12.291Z,99147.48
2024-01-14T04:48:04.378Z,99146.71
2024-01-14T04:49:56.525Z,99151.55
2024-01-14T04:51:48.314Z,99150.39
2024-01-14T04:53:40.085Z,99149.63
2024-01-14T04:55:31.305Z,99153.52
2024-01-14T04:57:22.441Z,99150.23
2024-01-14T04:59:14.971Z,99137.57
2024-01-14T05:01:06.441Z,99138.41
2024-01-14T05:02:58.242Z,99134.89
2024-01-14T05:04:49.620Z,99135.38
2024-01-14T05:06:40.872Z,99128.64
2024-01-14T05:08:32.459Z,99124.05
2024-01-14T05:10:23.782Z,99127.20
2024-01-14T05:12:14.990Z,99124.72
2024-01-14T05:14:06.416Z,99127.81
2024-01-14T05:15:58.141Z,99132.34
2024-01-14T05:17:49.830Z,99133.92
2024-01-14T05:19:42.152Z,99128.42
2024-01-14T05:21:33.754Z,99124.94
2024-01-14T05:23:25.296Z,99125.66
2024-01-14T05:25:16.418Z,99121.47
2024-01-14T05:27:08.082Z,99121.43
2024-01-14T05:29:02.567Z,99121.54
2024-01-14T05:30:54.391Z,99124.14
2024-01-14T05:32:45.677Z,99121.33
2024-01-14T05:34:37.236Z,99122.07
2024-01-14T05:36:29.014Z,99120.27
2024-01-14T05:38:20.584Z,99119.70
2024-01-14T05:40:12.421Z,99120.09
2024-01-14T05:42:05.043Z,99120.77
2024-01-14T05:43:56.744Z,99129.14
2024-01-14T05:45:47.775Z,99132.12
2024-01-14T05:47:39.792Z,99135.33
2024-01-14T05:49:31.371Z,99133.92
2024-01-14T05:51:22.922Z,99134.04
2024-01-14T05:53:14.477Z,99134.91
2024-01-14T05:55:06.077Z,99131.64
2024-01-14T05:56:59.011Z,99133.80
2024-01-14T05:58:50.837Z,99132.67
2024-01-14T06:00:42.730Z,99130.98
2024-01-14T06:02:34.308Z,99127.12
2024-01-14T06:04:25.831Z,99122.73
2024-01-14T06:06:17.335Z,99119.09
2024-01-14T06:08:08.845Z,99119.23
2024-01-14T06:10:00.386Z,99121.20
2024-01-14T06:11:52.080Z,99120.13
2024-01-14T06:13:43.687Z,99124.27
2024-01-14T06:15:35.348Z,99126.25
2024-01-14T06:17:26.823Z,99124.05
2024-01-14T06:19:18.287Z,99122.44
2024-01-14T06:21:10.001Z,99119.63
2024-01-14T06:23:01.662Z,99120.79
2024-01-14T06:24:52.766Z,99121.86
2024-01-14T06:26:44.003Z,99126.39
2024-01-14T06:28:35.138Z,99126.10
2024-01-14T06:30:26.602Z,99121.47
2024-01-14T06:32:18.240Z,99119.56
2024-01-14T06:34:10.000Z,99122.14
2024-01-14T06:36:05.655Z,99120.92
2024-01-14T06:37:56.919Z,99127.45
2024-01-14T06:39:48.418Z,99124.10
2024-01-14T06:41:40.708Z,99128.67
2024-01-14T06:43:32.333Z,99136.30
2024-01-14T06:45:23.551Z,99139.38
2024-01-14T06:47:14.962Z,99140.02
2024-01-14T06:49:06.468Z,99139.73
2024-01-14T06:50:58.626Z,99138.77
2024-01-14T06:52:50.391Z,99139.52
2024-01-14T06:54:42.124Z,99137.89
2024-01-14T06:56:33.999Z,99139.80
2024-01-14T06:58:25.537Z,99142.27
2024-01-14T07:00:17.193Z,99137.86
2024-01-14T07:02:09.334Z,99131.75
2024-01-14T07:04:01.013Z,99140.56
2024-01-14T07:05:52.977Z,99143.04
2024-01-14T07:07:45.730Z,99143.91
2024-01-14T07:09:37.586Z,99150.71
2024-01-14T07:11:29.150Z,99155.89
2024-01-14T07:13:20.898Z,99154.54
2024-01-14T07:15:12.113Z,99155.09
2024-01-14T07:17:04.043Z,99154.54
2024-01-14T07:18:55.428Z,99154.27
2024-01-14T07:20:47.188Z,99155.13
2024-01-14T07:22:39.242Z,99158.29
2024-01-14T07:24:31.827Z,99157.32
2024-01-14T07:26:24.680Z,99158.01
2024-01-14T07:28:16.480Z,99163.16
2024-01-14T07:30:08.981Z,99164.18
2024-01-14T07:32:02.623Z,99170.19
2024-01-14T07:33:55.893Z,99175.13
2024-01-14T07:35:47.445Z,99171.48
2024-01-14T07:37:38.716Z,99169.38
2024-01-14T07:39:30.548Z,99166.48
2024-01-14T07:41:22.371Z,99170.75
2024-01-14T07:43:14.104Z,99172.60
2024-01-14T07:45:06.131Z,99174.03
2024-01-14T07:46:57.783Z,99177.39
2024-01-14T07:48:49.523Z,99179.51
2024-01-14T07:50:41.354Z,99181.16
2024-01-14T07:52:33.396Z,99184.42
2024-01-14T07:54:24.861Z,99180.55
2024-01-14T07:56:16.771Z,99184.27
2024-01-14T07:58:12.751Z,99181.09
2024-01-14T08:00:05.087Z,99174.80
2024-01-14T08:01:56.538Z,99172.13
2024-01-14T08:03:49.388Z,99176.51
2024-01-14T08:05:41.147Z,99170.29
2024-01-14T08:07:32.718Z,99173.88
2024-01-14T08:09:24.090Z,99170.20
2024-01-14T08:11:15.664Z,99173.32
2024-01-14T08:13:06.850Z,99172.77
2024-01-14T08:14:58.589Z,99178.06
2024-01-14T08:16:49.939Z,99175.28
2024-01-14T08:18:42.368Z,99172.13
2024-01-14T08:20:34.166Z,99165.17
2024-01-14T08:22:25.360Z,99166.27
2024-01-14T08:24:17.156Z,99170.61
2024-01-14T08:26:08.747Z,99176.73
2024-01-14T08:28:00.009Z,99180.96
2024-01-14T08:29:51.426Z,99179.23
2024-01-14T08:31:43.019Z,99186.35
2024-01-14T08:33:34.806Z,99188.78
2024-01-14T08:35:26.338Z,99184.95
2024-01-14T08:37:17.885Z,99183.39
2024-01-14T08:39:09.230Z,99190.52
2024-01-14T08:41:01.073Z,99188.48
2024-01-14T08:42:52.855Z,99193.80
2024-01-14T08:44:44.268Z,99192.41
2024-01-14T08:46:40.280Z,99196.08
2024-01-14T08:48:32.033Z,99194.73
2024-01-14T08:50:24.022Z,99198.41
2024-01-14T08:52:15.340Z,99202.81
2024-01-14T08:54:07.513Z,99207.02
2024-01-14T08:55:58.805Z,99210.61
2024-01-14T08:57:50.293Z,99213.60
2024-01-14T08:59:42.293Z,99211.60
2024-01-14T09:01:33.930Z,99215.16
2024-01-14T09:03:25.748Z,99215.13
2024-01-14T09:05:18.089Z,99216.88
2024-01-14T09:07:09.621Z,99220.75
2024-01-14T09:09:01.362Z,99217.60
2024-01-14T09:10:53.133Z,99219.11
2024-01-14T09:12:44.829Z,99221.30
2024-01-14T09:14:36.460Z,99218.13
2024-01-14T09:16:27.955Z,99218.14
2024-01-14T09:18:19.346Z,99221.79
2024-01-14T09:20:11.563Z,99224.38
2024-01-14T09:22:03.227Z,99221.37
2024-01-14T09:23:54.972Z,99218.96
2024-01-14T09:25:46.968Z,99224.55
2024-01-14T09:27:38.852Z,99226.50
2024-01-14T09:29:30.725Z,99221.70
2024-01-14T09:31:22.976Z,99223.37
2024-01-14T09:33:16.271Z,99220.95
2024-01-14T09:35:09.653Z,99220.91
2024-01-14T09:37:01.367Z,99219.53
2024-01-14T09:38:53.314Z,99221.15
2024-01-14T09:40:45.307Z,99214.67
2024-01-14T09:42:40.202Z,99211.93
2024-01-14T09:44:31.889Z,99208.58
2024-01-14T09:46:23.433Z,99209.91
2024-01-14T09:48:17.598Z,99208.99
2024-01-14T09:50:11.266Z,99204.35
2024-01-14T09:52:04.346Z,99201.04
2024-01-14T09:53:57.459Z,99194.84
2024-01-14T09:55:49.487Z,99197.55
2024-01-14T09:57:42.421Z,99197.75
2024-01-14T09:59:35.686Z,99193.81
2024-01-14T10:01:32.545Z,99193.15
2024-01-14T10:03:24.325Z,99191.86
2024-01-14T10:05:16.856Z,99190.78
2024-01-14T10:07:08.807Z,99186.23
2024-01-14T10:09:00.539Z,99184.28
2024-01-14T10:10:58.065Z,99182.20
2024-01-14T10:12:51.024Z,99186.20
2024-01-14T10:14:42.807Z,99182.20
2024-01-14T10:16:51.853Z,99180.47
2024-01-14T10:18:46.735Z,99178.46
2024-01-14T10:20:38.040Z,99176.47
2024-01-14T10:22:29.909Z,99177.48
2024-01-14T10:24:24.394Z,99174.73
2024-01-14T10:26:16.084Z,99171.58
2024-01-14T10:28:08.535Z,99167.80
2024-01-14T10:30:00.230Z,99166.12
2024-01-14T10:31:52.609Z,99163.47
2024-01-14T10:33:46.069Z,99162.69
2024-01-14T10:35:41.626Z,99155.39
2024-01-14T10:37:36.631Z,99158.66
2024-01-14T10:39:34.343Z,99161.70
2024-01-14T10:41:26.274Z,99162.03
2024-01-14T10:43:17.571Z,99157.19
2024-01-14T10:45:09.795Z,99159.55
2024-01-14T10:47:05.340Z,99154.61
2024-01-14T10:49:07.059Z,99156.13
2024-01-14T10:51:02.287Z,99147.38
2024-01-14T10:52:57.335Z,99147.73
2024-01-14T10:54:51.392Z,99143.55
2024-01-14T10:56:50.913Z,99138.02
2024-01-14T10:58:42.856Z,99133.85
2024-01-14T11:00:35.948Z,99131.70
2024-01-14T11:02:29.618Z,99130.18
2024-01-14T11:04:22.859Z,99123.12
2024-01-14T11:06:15.071Z,99118.65
2024-01-14T11:08:06.932Z,99118.23
2024-01-14T11:09:58.714Z,99117.51
2024-01-14T11:12:02.379Z,99121.36
2024-01-14T11:14:09.327Z,99116.22
2024-01-14T11:16:31.092Z,99115.83
2024-01-14T11:18:28.133Z,99115.16
2024-01-14T11:20:23.280Z,99120.18
2024-01-14T11:22:32.194Z,99119.77
2024-01-14T11:24:29.073Z,99115.95
2024-01-14T11:26:20.736Z,99112.21
2024-01-14T11:28:13.731Z,99117.23
2024-01-14T11:30:12.983Z,99117.00
2024-01-14T11:32:05.212Z,99116.58
2024-01-14T11:33:56.460Z,99113.45
2024-01-14T11:35:47.644Z,99106.28
2024-01-14T11:37:43.460Z,99108.02
2024-01-14T11:39:35.311Z,99111.42
2024-01-14T11:41:32.090Z,99115.20
2024-01-14T11:43:26.499Z,99111.02
2024-01-14T11:45:21.090Z,99109.98
2024-01-14T11:47:12.868Z,99110.30
2024-01-14T11:49:16.720Z,99102.14
2024-01-14T11:51:15.465Z,99095.48
2024-01-14T11:53:08.718Z,99095.08
2024-01-14T11:55:00.805Z,99097.64
2024-01-14T11:56:53.328Z,99094.00
2024-01-14T11:58:44.429Z,99094.66
2024-01-14T12:00:38.080Z,99094.10
2024-01-14T12:02:29.584Z,99093.91
2024-01-14T12:04:24.885Z,99093.84
2024-01-14T12:06:16.759Z,99091.63
2024-01-14T12:08:08.996Z,99093.03
2024-01-14T12:10:00.532Z,99090.56
2024-01-14T12:11:51.921Z,99087.14
2024-01-14T12:13:43.730Z,99089.89
2024-01-14T12:15:38.217Z,99084.03
2024-01-14T12:17:33.001Z,99084.27
2024-01-14T12:19:24.486Z,99088.41
2024-01-14T12:21:23.979Z,99082.92
2024-01-14T12:23:22.034Z,99080.35
2024-01-14T12:25:13.721Z,99078.01
2024-01-14T12:27:05.099Z,99070.83
2024-01-14T12:28:56.418Z,99075.37
2024-01-14T12:30:47.515Z,99076.91
2024-01-14T12:32:38.723Z,99074.25
2024-01-14T12:34:30.612Z,99076.10
2024-01-14T12:36:26.017Z,99073.09
2024-01-14T12:38:17.808Z,99073.48
2024-01-14T12:40:10.402Z,99068.48
2024-01-14T12:42:02.277Z,99068.52
2024-01-14T12:43:53.831Z,99063.07
2024-01-14T12:45:54.532Z,99069.78
2024-01-14T12:47:59.190Z,99060.92
2024-01-14T12:49:50.573Z,99068.31
2024-01-14T12:51:42.439Z,99064.46
2024-01-14T12:53:34.077Z,99066.91
2024-01-14T12:55:30.545Z,99067.73
2024-01-14T12:57:24.553Z,99073.23
2024-01-14T12:59:16.497Z,99068.93
2024-01-14T13:01:10.682Z,99067.02
2024-01-14T13:03:02.390Z,99066.08
2024-01-14T13:04:54.037Z,99071.41
2024-01-14T13:06:51.402Z,99067.16
2024-01-14T13:08:43.778Z,99064.97
2024-01-14T13:10:35.371Z,99060.22
2024-01-14T13:12:26.668Z,99059.12
2024-01-14T13:14:18.068Z,99051.98
2024-01-14T13:16:10.148Z,99055.54
2024-01-14T13:18:01.703Z,99056.33
2024-01-14T13:19:53.298Z,99056.11
2024-01-14T13:21:44.850Z,99051.91
2024-01-14T13:23:36.035Z,99055.44
2024-01-14T13:25:27.426Z,99057.54
2024-01-14T13:27:19.161Z,99059.88
2024-01-14T13:29:12.074Z,99062.64
2024-01-14T13:31:04.101Z,99064.24
2024-01-14T13:32:56.002Z,99063.85
2024-01-14T13:34:47.701Z,99064.20
2024-01-14T13:36:39.109Z,99059.96
2024-01-14T13:38:30.430Z,99060.64
2024-01-14T13:40:21.929Z,99064.95
2024-01-14T13:42:13.768Z,99064.41
2024-01-14T13:44:15.812Z,99055.23
2024-01-14T13:46:09.132Z,99060.85
2024-01-14T13:48:00.901Z,99058.30
2024-01-14T13:49:52.827Z,99063.41
2024-01-14T13:51:44.673Z,99065.40
2024-01-14T13:53:36.018Z,99064.58
2024-01-14T13:55:27.662Z,99062.02
2024-01-14T13:57:19.879Z,99058.98
2024-01-14T13:59:12.202Z,99059.29
2024-01-14T14:01:04.227Z,99057.88
2024-01-14T14:02:55.846Z,99060.37
2024-01-14T14:04:47.622Z,99060.61
2024-01-14T14:06:40.852Z,99061.73
2024-01-14T14:08:32.681Z,99060.19
2024-01-14T14:10:24.413Z,99057.67
2024-01-14T14:12:17.083Z,99057.51
2024-01-14T14:14:08.753Z,99059.16
2024-01-14T14:16:01.805Z,99063.69
2024-01-14T14:17:59.933Z,99068.80
2024-01-14T14:19:54.458Z,99065.34
2024-01-14T14:21:55.269Z,99066.02
2024-01-14T14:23:51.404Z,99062.57
2024-01-14T14:25:43.200Z,99065.64
2024-01-14T14:27:35.169Z,99065.47
2024-01-14T14:29:27.373Z,99061.19
2024-01-14T14:31:20.529Z,99056.01
2024-01-14T14:33:12.419Z,99055.21
2024-01-14T14:35:04.621Z,99051.78
2024-01-14T14:36:56.141Z,99048.04
2024-01-14T14:38:47.529Z,99042.89
2024-01-14T14:40:38.763Z,99041.61
2024-01-14T14:42:30.322Z,99041.28
2024-01-14T14:44:21.885Z,99037.33
2024-01-14T14:46:13.569Z,99038.59
2024-01-14T14:48:05.511Z,99036.20
2024-01-14T14:49:57.594Z,99035.19
2024-01-14T14:51:49.075Z,99031.34
2024-01-14T14:53:40.555Z,99034.41
2024-01-14T14:55:31.709Z,99030.59
2024-01-14T14:57:23.616Z,99031.00
2024-01-14T14:59:17.855Z,99028.80
2024-01-14T15:01:10.957Z,99029.98
2024-01-14T15:03:04.026Z,99025.88
2024-01-14T15:04:55.221Z,99024.09
2024-01-14T15:06:47.164Z,99020.67
2024-01-14T15:08:39.219Z,99019.27
2024-01-14T15:10:30.625Z,99021.14
2024-01-14T15:12:22.482Z,99024.65
2024-01-14T15:14:14.209Z,99029.69
2024-01-14T15:16:06.131Z,99024.39
2024-01-14T15:17:57.666Z,99022.38
2024-01-14T15:19:50.044Z,99020.55
2024-01-14T15:21:41.535Z,99022.79
2024-01-14T15:23:32.844Z,99018.11
2024-01-14T15:25:24.578Z,99019.30
2024-01-14T15:27:15.973Z,99017.06
2024-01-14T15:29:07.529Z,99011.21
2024-01-14T15:31:07.247Z,99013.63
2024-01-14T15:33:00.576Z,99012.14
2024-01-14T15:34:52.954Z,99013.88
2024-01-14T15:36:44.691Z,99012.30
2024-01-14T15:38:36.426Z,99009.77
2024-01-14T15:40:30.853Z,99011.05
2024-01-14T15:42:22.755Z,99013.67
2024-01-14T15:44:14.346Z,99011.52
2024-01-14T15:46:05.897Z,99011.23
2024-01-14T15:47:57.686Z,99008.50
2024-01-14T15:49:49.100Z,99008.33
2024-01-14T15:51:40.965Z,99008.28
2024-01-14T15:53:32.223Z,99005.30
2024-01-14T15:55:24.026Z,98998.89
2024-01-14T15:57:15.103Z,99001.00
2024-01-14T15:59:06.464Z,98995.73
2024-01-14T16:01:07.034Z,99003.40
2024-01-14T16:03:01.101Z,98994.61
2024-01-14T16:04:52.642Z,98992.91
2024-01-14T16:06:45.631Z,98998.34
2024-01-14T16:08:37.483Z,98992.16
2024-01-14T16:10:32.919Z,98996.44
2024-01-14T16:12:24.633Z,98989.30
2024-01-14T16:14:16.166Z,98991.52
2024-01-14T16:16:08.405Z,98992.25
2024-01-14T16:18:01.596Z,98998.67
2024-01-14T16:19:53.590Z,98993.75
2024-01-14T16:21:45.344Z,98992.05
2024-01-14T16:23:39.173Z,98990.56
2024-01-14T16:25:31.398Z,98986.95
2024-01-14T16:27:22.960Z,98988.79
2024-01-14T16:29:14.292Z,98987.78
2024-01-14T16:31:12.197Z,98982.55
2024-01-14T16:33:06.083Z,98980.56
2024-01-14T16:34:58.453Z,98982.20
2024-01-14T16:36:49.828Z,98980.65
2024-01-14T16:38:41.017Z,98979.83
2024-01-14T16:40:32.527Z,98977.09
2024-01-14T16:42:24.316Z,98970.80
2024-01-14T16:44:15.771Z,98970.55
2024-01-14T16:46:07.357Z,98968.92
2024-01-14T16:47:59.174Z,98965.44
2024-01-14T16:49:50.886Z,98965.45
2024-01-14T16:51:42.829Z,98964.86
2024-01-14T16:53:34.455Z,98962.91
2024-01-14T16:55:26.375Z,98956.81
2024-01-14T16:57:18.340Z,98956.36
2024-01-14T16:59:10.054Z,98954.35
2024-01-14T17:02:56.203Z,98948.86
2024-01-14T17:04:48.121Z,98946.81
2024-01-14T17:06:40.409Z,98945.34
2024-01-14T17:08:32.023Z,98941.89
2024-01-14T17:10:23.726Z,98946.41
2024-01-14T17:12:15.278Z,98937.95
2024-01-14T17:14:06.821Z,98935.73
2024-01-14T17:16:08.278Z,98933.23
2024-01-14T17:18:04.032Z,98930.11
2024-01-14T17:19:56.168Z,98925.16
2024-01-14T17:21:47.897Z,98922.09
2024-01-14T17:23:39.610Z,98919.08
2024-01-14T17:25:30.928Z,98920.53
2024-01-14T17:27:22.163Z,98919.66
2024-01-14T17:29:17.029Z,98919.58
2024-01-14T17:31:11.279Z,98910.83
2024-01-14T17:33:03.249Z,98906.07
2024-01-14T17:34:54.665Z,98905.28
2024-01-14T17:36:46.102Z,98901.71
2024-01-14T17:38:38.077Z,98903.00
2024-01-14T17:40:29.421Z,98904.48
2024-01-14T17:42:20.571Z,98901.60
2024-01-14T17:44:12.517Z,98896.89
2024-01-14T17:46:08.183Z,98896.42
2024-01-14T17:48:01.164Z,98899.23
2024-01-14T17:49:53.137Z,98897.52
2024-01-14T17:51:44.720Z,98895.79
2024-01-14T17:53:36.921Z,98885.84
2024-01-14T17:55:28.341Z,98881.95
2024-01-14T17:57:20.091Z,98874.83
2024-01-14T17:59:12.927Z,98872.52
2024-01-14T18:01:07.270Z,98870.73
2024-01-14T18:03:05.207Z,98860.33
2024-01-14T18:04:57.620Z,98859.16
2024-01-14T18:06:49.693Z,98857.59
2024-01-14T18:08:41.233Z,98857.51
2024-01-14T18:10:32.643Z,98855.11
2024-01-14T18:12:24.400Z,98853.41
2024-01-14T18:14:15.947Z,98852.17
2024-01-14T18:16:07.525Z,98849.02
2024-01-14T18:18:05.027Z,98847.55
2024-01-14T18:19:56.762Z,98848.44
2024-01-14T18:21:48.279Z,98844.80
2024-01-14T18:23:39.589Z,98842.89
2024-01-14T18:25:31.372Z,98838.83
2024-01-14T18:27:23.097Z,98841.20
2024-01-14T18:29:15.147Z,98836.30
2024-01-14T18:31:06.746Z,98836.09
2024-01-14T18:33:08.303Z,98834.01
2024-01-14T18:35:02.783Z,98832.48
2024-01-14T18:36:54.828Z,98829.50
2024-01-14T18:38:47.781Z,98826.56
2024-01-14T18:40:40.473Z,98828.55
2024-01-14T18:42:32.679Z,98829.25
2024-01-14T18:44:27.724Z,98823.55
2024-01-14T18:46:22.295Z,98826.52
2024-01-14T18:48:14.226Z,98820.53
2024-01-14T18:50:06.856Z,98816.77
2024-01-14T18:52:01.568Z,98812.38
2024-01-14T18:53:53.175Z,98811.86
2024-01-14T18:55:44.866Z,98808.55
2024-01-14T18:57:36.279Z,98808.55
2024-01-14T18:59:28.094Z,98811.30
2024-01-14T19:01:19.597Z,98811.99
2024-01-14T19:03:11.537Z,98804.13
2024-01-14T19:05:04.577Z,98803.66
2024-01-14T19:06:57.217Z,98804.05
2024-01-14T19:08:48.793Z,98800.73
2024-01-14T19:10:42.362Z,98800.20
2024-01-14T19:12:33.843Z,98801.77
2024-01-14T19:14:25.900Z,98795.21
2024-01-14T19:16:17.757Z,98793.08
2024-01-14T19:18:11.436Z,98790.27
2024-01-14T19:20:05.376Z,98787.71
2024-01-14T19:21:57.846Z,98789.92
2024-01-14T19:23:51.715Z,98788.21
2024-01-14T19:25:43.298Z,98785.29
2024-01-14T19:27:35.123Z,98785.38
2024-01-14T19:29:26.711Z,98783.18
2024-01-14T19:31:18.220Z,98788.48
2024-01-14T19:33:09.556Z,98782.85
2024-01-14T19:35:01.170Z,98785.13
2024-01-14T19:36:52.800Z,98778.27
2024-01-14T19:38:44.148Z,98779.59
2024-01-14T19:40:36.051Z,98779.46
2024-01-14T19:42:27.624Z,98779.05
2024-01-14T19:44:21.483Z,98772.34
2024-01-14T19:46:12.736Z,98770.02
2024-01-14T19:48:05.468Z,98766.28
2024-01-14T19:49:57.012Z,98765.60
2024-01-14T19:51:48.777Z,98767.18
2024-01-14T19:53:40.212Z,98765.32
2024-01-14T19:55:33.507Z,98763.57
2024-01-14T19:57:25.251Z,98759.02
2024-01-14T19:59:17.143Z,98760.62
2024-01-14T20:01:08.870Z,98756.05
2024-01-14T20:03:00.559Z,98755.90
2024-01-14T20:04:52.134Z,98756.17
2024-01-14T20:06:48.845Z,98758.17
2024-01-14T20:08:42.322Z,98760.86
2024-01-14T20:10:35.041Z,98757.65
2024-01-14T20:12:26.610Z,98749.23
2024-01-14T20:14:18.343Z,98753.38
2024-01-14T20:16:09.901Z,98751.56
2024-01-14T20:18:01.790Z,98746.21
2024-01-14T20:19:54.966Z,98742.90
2024-01-14T20:21:47.181Z,98737.08
2024-01-14T20:23:38.604Z,98732.96
2024-01-14T20:25:30.415Z,98727.95
2024-01-14T20:29:14.417Z,98716.70
2024-01-14T20:31:06.491Z,98712.48
2024-01-14T20:32:58.521Z,98709.33
2024-01-14T20:34:51.118Z,98705.84
2024-01-14T20:36:42.942Z,98699.87
2024-01-14T20:38:34.491Z,98697.18
2024-01-14T20:40:26.376Z,98687.83
2024-01-14T20:42:17.803Z,98690.42
2024-01-14T20:44:09.826Z,98688.80
2024-01-14T20:46:01.330Z,98686.90
2024-01-14T20:47:52.857Z,98685.54
2024-01-14T20:49:45.037Z,98682.95
2024-01-14T20:51:36.690Z,98683.17
2024-01-14T20:53:28.408Z,98681.48
2024-01-14T20:55:19.883Z,98674.09
2024-01-14T20:57:13.163Z,98667.98
2024-01-14T20:59:04.701Z,98666.61
2024-01-14T21:00:57.895Z,98666.64
2024-01-14T21:02:52.096Z,98664.99
2024-01-14T21:04:44.498Z,98662.38
2024-01-14T21:06:36.721Z,98659.36
2024-01-14T21:08:28.502Z,98657.37
2024-01-14T21:10:20.286Z,98655.01
2024-01-14T21:12:11.854Z,98659.91
2024-01-14T21:14:04.327Z,98657.61
2024-01-14T21:15:56.089Z,98655.53
2024-01-14T21:17:47.818Z,98656.02
2024-01-14T21:19:39.350Z,98652.65
2024-01-14T21:21:31.199Z,98653.91
2024-01-14T21:23:22.940Z,98650.30
2024-01-14T21:25:14.471Z,98647.58
2024-01-14T21:27:06.398Z,98647.91
2024-01-14T21:29:01.851Z,98646.92
2024-01-14T21:30:53.597Z,98641.65
2024-01-14T21:32:45.684Z,98646.84
2024-01-14T21:34:38.175Z,98646.02
2024-01-14T21:36:29.903Z,98642.99
2024-01-14T21:38:21.547Z,98643.58
2024-01-14T21:40:13.271Z,98638.41
2024-01-14T21:42:04.684Z,98638.59
2024-01-14T21:43:56.661Z,98637.73
2024-01-14T21:45:48.178Z,98636.52
2024-01-14T21:47:40.204Z,98630.98
2024-01-14T21:49:32.173Z,98628.98
2024-01-14T21:51:26.407Z,98625.46
2024-01-14T21:53:18.202Z,98623.77
2024-01-14T21:55:12.379Z,98617.48
2024-01-14T21:57:05.574Z,98614.29
2024-01-14T21:58:57.211Z,98612.02
2024-01-14T22:00:49.020Z,98605.10
2024-01-14T22:02:40.732Z,98604.15
2024-01-14T22:04:32.203Z,98604.06
2024-01-14T22:06:23.596Z,98607.14